sensor_id;sensor_type;location;lat;lon;timestamp;pressure;altitude;pressure_sealevel;temperature;humidity
55424;BME280;41294;42.666;23.350;2023-03-18T00:01:45;95415.47;;;1.76;95.91
55424;BME280;41294;42.666;23.350;2023-03-18T00:04:11;95421.41;;;1.73;96.51
55424;BME280;41294;42.666;23.350;2023-03-18T00:06:36;95422.50;;;1.72;96.47
55424;BME280;41294;42.666;23.350;2023-03-18T00:09:03;95419.19;;;1.68;96.49
55424;BME280;41294;42.666;23.350;2023-03-18T00:11:29;95414.34;;;1.63;97.63
55424;BME280;41294;42.666;23.350;2023-03-18T00:13:56;95415.81;;;1.64;97.68
55424;BME280;41294;42.666;23.350;2023-03-18T00:16:22;95415.81;;;1.71;97.76
55424;BME280;41294;42.666;23.350;2023-03-18T00:18:49;95415.09;;;1.64;97.68
55424;BME280;41294;42.666;23.350;2023-03-18T00:21:14;95403.59;;;1.62;98.35
55424;BME280;41294;42.666;23.350;2023-03-18T00:23:41;95408.41;;;1.70;97.88
55424;BME280;41294;42.666;23.350;2023-03-18T00:26:07;95406.94;;;1.69;98.34
55424;BME280;41294;42.666;23.350;2023-03-18T00:28:33;95411.72;;;1.57;100.00
55424;BME280;41294;42.666;23.350;2023-03-18T00:31:08;95409.13;;;1.50;100.00
55424;BME280;41294;42.666;23.350;2023-03-18T00:33:38;95397.28;;;1.49;100.00
55424;BME280;41294;42.666;23.350;2023-03-18T00:36:05;95394.28;;;1.47;100.00
55424;BME280;41294;42.666;23.350;2023-03-18T00:38:31;95390.59;;;1.48;100.00
55424;BME280;41294;42.666;23.350;2023-03-18T00:40:58;95390.59;;;1.55;100.00
55424;BME280;41294;42.666;23.350;2023-03-18T00:43:37;95384.69;;;1.54;100.00
55424;BME280;41294;42.666;23.350;2023-03-18T00:46:17;95381.75;;;1.69;100.00
55424;BME280;41294;42.666;23.350;2023-03-18T00:48:43;95376.56;;;1.66;100.00
55424;BME280;41294;42.666;23.350;2023-03-18T00:51:10;95375.06;;;1.68;100.00
55424;BME280;41294;42.666;23.350;2023-03-18T00:53:43;95368.78;;;1.69;100.00
55424;BME280;41294;42.666;23.350;2023-03-18T00:56:10;95369.13;;;1.64;100.00
55424;BME280;41294;42.666;23.350;2023-03-18T00:58:36;95369.13;;;1.68;99.19
55424;BME280;41294;42.666;23.350;2023-03-18T01:01:03;95365.44;;;1.62;98.70
55424;BME280;41294;42.666;23.350;2023-03-18T01:03:29;95358.75;;;1.64;98.79
55424;BME280;41294;42.666;23.350;2023-03-18T01:05:56;95362.47;;;1.60;98.51
55424;BME280;41294;42.666;23.350;2023-03-18T01:08:21;95360.25;;;1.65;98.06
55424;BME280;41294;42.666;23.350;2023-03-18T01:10:48;95358.38;;;1.52;98.04
55424;BME280;41294;42.666;23.350;2023-03-18T01:13:14;95359.50;;;1.62;98.07
55424;BME280;41294;42.666;23.350;2023-03-18T01:15:39;95351.34;;;1.53;97.67
55424;BME280;41294;42.666;23.350;2023-03-18T01:18:07;95350.22;;;1.54;98.06
55424;BME280;41294;42.666;23.350;2023-03-18T01:20:33;95350.59;;;1.62;97.72
55424;BME280;41294;42.666;23.350;2023-03-18T01:22:58;95350.25;;;1.61;97.18
55424;BME280;41294;42.666;23.350;2023-03-18T01:25:25;95350.59;;;1.49;97.35
55424;BME280;41294;42.666;23.350;2023-03-18T01:27:51;95346.16;;;1.53;97.82
55424;BME280;41294;42.666;23.350;2023-03-18T01:30:18;95348.38;;;1.47;97.67
55424;BME280;41294;42.666;23.350;2023-03-18T01:32:43;95345.03;;;1.40;98.15
55424;BME280;41294;42.666;23.350;2023-03-18T01:35:09;95336.53;;;1.43;98.25
55424;BME280;41294;42.666;23.350;2023-03-18T01:37:37;95339.13;;;1.46;98.40
55424;BME280;41294;42.666;23.350;2023-03-18T01:40:03;95345.41;;;1.42;98.23
55424;BME280;41294;42.666;23.350;2023-03-18T01:42:29;95349.47;;;1.43;97.78
55424;BME280;41294;42.666;23.350;2023-03-18T01:47:40;95335.75;;;1.25;98.43
55424;BME280;41294;42.666;23.350;2023-03-18T01:50:09;95341.69;;;1.36;98.52
55424;BME280;41294;42.666;23.350;2023-03-18T01:52:35;95342.44;;;1.36;98.09
55424;BME280;41294;42.666;23.350;2023-03-18T01:55:11;95349.84;;;1.38;97.93
55424;BME280;41294;42.666;23.350;2023-03-18T01:57:39;95341.69;;;1.39;98.06
55424;BME280;41294;42.666;23.350;2023-03-18T02:00:07;95329.13;;;1.45;97.01
55424;BME280;41294;42.666;23.350;2023-03-18T02:02:37;95338.00;;;1.51;96.38
55424;BME280;41294;42.666;23.350;2023-03-18T02:05:06;95338.72;;;1.41;96.46
55424;BME280;41294;42.666;23.350;2023-03-18T02:07:34;95332.81;;;1.44;96.66
55424;BME280;41294;42.666;23.350;2023-03-18T02:10:12;95326.16;;;1.36;97.03
55424;BME280;41294;42.666;23.350;2023-03-18T02:12:41;95329.81;;;1.28;97.60
55424;BME280;41294;42.666;23.350;2023-03-18T02:15:12;95325.38;;;1.32;97.38
55424;BME280;41294;42.666;23.350;2023-03-18T02:17:51;95329.81;;;1.24;97.66
55424;BME280;41294;42.666;23.350;2023-03-18T02:20:30;95326.09;;;1.18;97.80
55424;BME280;41294;42.666;23.350;2023-03-18T02:28:06;95325.34;;;1.07;99.17
55424;BME280;41294;42.666;23.350;2023-03-18T02:30:43;95332.00;;;1.05;98.29
55424;BME280;41294;42.666;23.350;2023-03-18T02:33:13;95330.88;;;1.02;98.45
55424;BME280;41294;42.666;23.350;2023-03-18T02:35:41;95327.19;;;1.03;98.88
55424;BME280;41294;42.666;23.350;2023-03-18T02:38:08;95327.19;;;1.07;98.84
55424;BME280;41294;42.666;23.350;2023-03-18T02:40:40;95326.81;;;1.01;98.13
55424;BME280;41294;42.666;23.350;2023-03-18T02:46:10;95318.66;;;1.06;98.58
55424;BME280;41294;42.666;23.350;2023-03-18T02:48:41;95320.91;;;1.01;98.17
55424;BME280;41294;42.666;23.350;2023-03-18T02:51:09;95325.31;;;0.93;99.25
55424;BME280;41294;42.666;23.350;2023-03-18T02:53:35;95322.72;;;0.97;98.85
55424;BME280;41294;42.666;23.350;2023-03-18T02:56:01;95321.63;;;0.98;98.92
55424;BME280;41294;42.666;23.350;2023-03-18T02:58:27;95322.31;;;0.88;99.20
55424;BME280;41294;42.666;23.350;2023-03-18T03:00:53;95321.63;;;0.98;98.65
55424;BME280;41294;42.666;23.350;2023-03-18T03:03:19;95316.81;;;1.00;98.84
55424;BME280;41294;42.666;23.350;2023-03-18T03:05:45;95317.91;;;0.92;98.16
55424;BME280;41294;42.666;23.350;2023-03-18T03:08:12;95318.66;;;0.96;98.18
55424;BME280;41294;42.666;23.350;2023-03-18T03:10:37;95318.25;;;0.94;97.83
55424;BME280;41294;42.666;23.350;2023-03-18T03:13:03;95330.81;;;0.85;98.16
55424;BME280;41294;42.666;23.350;2023-03-18T03:15:28;95330.09;;;0.88;98.47
55424;BME280;41294;42.666;23.350;2023-03-18T03:17:54;95328.97;;;0.82;98.87
55424;BME280;41294;42.666;23.350;2023-03-18T03:20:20;95329.69;;;0.79;98.93
55424;BME280;41294;42.666;23.350;2023-03-18T03:22:46;95329.31;;;0.80;99.08
55424;BME280;41294;42.666;23.350;2023-03-18T03:25:12;95327.09;;;0.76;99.25
55424;BME280;41294;42.666;23.350;2023-03-18T03:27:39;95334.84;;;0.72;99.56
55424;BME280;41294;42.666;23.350;2023-03-18T03:30:07;95338.53;;;0.68;99.41
55424;BME280;41294;42.666;23.350;2023-03-18T03:32:34;95344.84;;;0.70;99.79
55424;BME280;41294;42.666;23.350;2023-03-18T03:34:59;95333.38;;;0.75;99.54
55424;BME280;41294;42.666;23.350;2023-03-18T03:37:24;95333.75;;;0.77;99.08
55424;BME280;41294;42.666;23.350;2023-03-18T03:39:51;95337.06;;;0.70;99.34
55424;BME280;41294;42.666;23.350;2023-03-18T03:42:16;95340.03;;;0.72;98.85
55424;BME280;41294;42.666;23.350;2023-03-18T03:44:42;95338.94;;;0.70;99.12
55424;BME280;41294;42.666;23.350;2023-03-18T03:47:07;95341.88;;;0.75;99.05
55424;BME280;41294;42.666;23.350;2023-03-18T03:49:33;95334.16;;;0.82;98.60
55424;BME280;41294;42.666;23.350;2023-03-18T03:51:58;95337.09;;;0.77;98.67
55424;BME280;41294;42.666;23.350;2023-03-18T03:54:24;95334.16;;;0.82;98.48
55424;BME280;41294;42.666;23.350;2023-03-18T03:56:50;95344.16;;;0.87;97.66
55424;BME280;41294;42.666;23.350;2023-03-18T03:59:16;95342.66;;;0.79;97.91
55424;BME280;41294;42.666;23.350;2023-03-18T04:01:42;95343.41;;;0.83;97.80
55424;BME280;41294;42.666;23.350;2023-03-18T04:04:07;95342.66;;;0.86;97.76
55424;BME280;41294;42.666;23.350;2023-03-18T04:06:32;95346.72;;;0.77;97.13
55424;BME280;41294;42.666;23.350;2023-03-18T04:08:58;95346.66;;;0.63;97.76
55424;BME280;41294;42.666;23.350;2023-03-18T04:11:24;95351.88;;;0.70;97.98
55424;BME280;41294;42.666;23.350;2023-03-18T04:13:50;95357.00;;;0.66;97.69
55424;BME280;41294;42.666;23.350;2023-03-18T04:16:15;95358.09;;;0.58;98.38
55424;BME280;41294;42.666;23.350;2023-03-18T04:18:41;95361.41;;;0.55;98.64
55424;BME280;41294;42.666;23.350;2023-03-18T04:21:07;95364.38;;;0.57;98.45
55424;BME280;41294;42.666;23.350;2023-03-18T04:23:32;95367.31;;;0.52;98.60
55424;BME280;41294;42.666;23.350;2023-03-18T04:25:58;95376.19;;;0.55;98.69
55424;BME280;41294;42.666;23.350;2023-03-18T04:28:24;95385.09;;;0.57;98.82
55424;BME280;41294;42.666;23.350;2023-03-18T04:30:50;95377.69;;;0.56;98.79
55424;BME280;41294;42.666;23.350;2023-03-18T04:33:16;95381.38;;;0.58;98.63
55424;BME280;41294;42.666;23.350;2023-03-18T04:35:42;95382.13;;;0.55;98.63
55424;BME280;41294;42.666;23.350;2023-03-18T04:38:08;95389.53;;;0.57;98.72
55424;BME280;41294;42.666;23.350;2023-03-18T04:40:34;95388.88;;;0.70;98.29
55424;BME280;41294;42.666;23.350;2023-03-18T04:42:59;95388.88;;;0.77;97.44
55424;BME280;41294;42.666;23.350;2023-03-18T04:45:25;95388.31;;;1.22;96.62
55424;BME280;41294;42.666;23.350;2023-03-18T04:47:51;95389.53;;;1.87;92.52
55424;BME280;41294;42.666;23.350;2023-03-18T04:50:17;95395.47;;;2.22;89.62
55424;BME280;41294;42.666;23.350;2023-03-18T04:52:43;95400.94;;;2.76;87.31
55424;BME280;41294;42.666;23.350;2023-03-18T04:55:10;95397.81;;;3.13;84.51
55424;BME280;41294;42.666;23.350;2023-03-18T04:57:36;95397.34;;;3.42;80.45
55424;BME280;41294;42.666;23.350;2023-03-18T05:00:07;95397.41;;;3.28;79.77
55424;BME280;41294;42.666;23.350;2023-03-18T05:02:36;95403.56;;;2.59;82.68
55424;BME280;41294;42.666;23.350;2023-03-18T05:05:02;95402.53;;;2.04;86.52
55424;BME280;41294;42.666;23.350;2023-03-18T05:07:27;95405.47;;;1.99;86.81
55424;BME280;41294;42.666;23.350;2023-03-18T05:09:53;95397.69;;;1.85;88.82
55424;BME280;41294;42.666;23.350;2023-03-18T05:12:19;95397.31;;;1.83;89.30
55424;BME280;41294;42.666;23.350;2023-03-18T05:14:44;95389.91;;;1.78;89.97
55424;BME280;41294;42.666;23.350;2023-03-18T05:17:11;95392.84;;;1.77;90.06
55424;BME280;41294;42.666;23.350;2023-03-18T05:19:43;95392.13;;;1.73;90.80
55424;BME280;41294;42.666;23.350;2023-03-18T05:22:10;95384.34;;;1.69;91.44
55424;BME280;41294;42.666;23.350;2023-03-18T05:24:36;95376.16;;;2.41;90.13
55424;BME280;41294;42.666;23.350;2023-03-18T05:27:02;95377.94;;;4.48;81.98
55424;BME280;41294;42.666;23.350;2023-03-18T05:29:27;95374.25;;;5.68;75.54
55424;BME280;41294;42.666;23.350;2023-03-18T05:31:53;95378.78;;;6.59;71.21
55424;BME280;41294;42.666;23.350;2023-03-18T05:34:18;95374.31;;;6.98;68.19
55424;BME280;41294;42.666;23.350;2023-03-18T05:36:43;95363.94;;;8.17;66.51
55424;BME280;41294;42.666;23.350;2023-03-18T05:39:09;95379.63;;;9.33;61.53
55424;BME280;41294;42.666;23.350;2023-03-18T05:41:34;95372.63;;;9.68;59.98
55424;BME280;41294;42.666;23.350;2023-03-18T05:44:00;95379.75;;;9.92;59.42
55424;BME280;41294;42.666;23.350;2023-03-18T05:46:25;95379.97;;;9.97;57.90
55424;BME280;41294;42.666;23.350;2023-03-18T05:48:51;95371.78;;;10.20;57.83
55424;BME280;41294;42.666;23.350;2023-03-18T05:51:16;95382.81;;;10.74;56.65
55424;BME280;41294;42.666;23.350;2023-03-18T05:53:42;95385.78;;;9.27;54.08
55424;BME280;41294;42.666;23.350;2023-03-18T05:56:07;95388.66;;;8.31;59.70
55424;BME280;41294;42.666;23.350;2023-03-18T05:58:33;95386.97;;;8.69;59.42
55424;BME280;41294;42.666;23.350;2023-03-18T06:00:58;95391.31;;;9.57;54.84
55424;BME280;41294;42.666;23.350;2023-03-18T06:03:24;95392.56;;;7.92;58.67
55424;BME280;41294;42.666;23.350;2023-03-18T06:05:51;95395.31;;;9.62;55.64
55424;BME280;41294;42.666;23.350;2023-03-18T06:08:18;95395.97;;;8.24;58.84
55424;BME280;41294;42.666;23.350;2023-03-18T06:10:43;95386.38;;;9.06;56.68
55424;BME280;41294;42.666;23.350;2023-03-18T06:13:10;95398.19;;;8.25;58.90
55424;BME280;41294;42.666;23.350;2023-03-18T06:15:36;95395.66;;;7.71;61.32
55424;BME280;41294;42.666;23.350;2023-03-18T06:18:02;95402.44;;;6.06;67.91
55424;BME280;41294;42.666;23.350;2023-03-18T06:20:29;95398.91;;;5.37;70.87
55424;BME280;41294;42.666;23.350;2023-03-18T06:22:55;95399.69;;;5.90;69.16
55424;BME280;41294;42.666;23.350;2023-03-18T06:25:21;95407.47;;;5.68;69.30
55424;BME280;41294;42.666;23.350;2023-03-18T06:27:47;95399.38;;;6.57;69.34
55424;BME280;41294;42.666;23.350;2023-03-18T06:30:15;95394.50;;;7.72;63.74
55424;BME280;41294;42.666;23.350;2023-03-18T06:32:41;95388.59;;;9.07;59.10
55424;BME280;41294;42.666;23.350;2023-03-18T06:35:07;95391.13;;;9.64;55.97
55424;BME280;41294;42.666;23.350;2023-03-18T06:37:34;95389.00;;;9.06;56.75
55424;BME280;41294;42.666;23.350;2023-03-18T06:40:00;95378.72;;;9.65;57.31
55424;BME280;41294;42.666;23.350;2023-03-18T06:42:27;95375.56;;;10.65;53.57
55424;BME280;41294;42.666;23.350;2023-03-18T06:44:52;95370.94;;;10.91;52.29
55424;BME280;41294;42.666;23.350;2023-03-18T06:47:19;95363.25;;;9.67;54.12
55424;BME280;41294;42.666;23.350;2023-03-18T06:49:46;95366.81;;;10.22;54.26
55424;BME280;41294;42.666;23.350;2023-03-18T06:52:12;95376.06;;;10.39;51.55
55424;BME280;41294;42.666;23.350;2023-03-18T06:54:38;95370.22;;;10.10;53.30
55424;BME280;41294;42.666;23.350;2023-03-18T06:57:04;95368.41;;;10.07;54.12
55424;BME280;41294;42.666;23.350;2023-03-18T06:59:30;95370.31;;;10.19;52.47
55424;BME280;41294;42.666;23.350;2023-03-18T07:01:56;95374.09;;;9.93;53.21
55424;BME280;41294;42.666;23.350;2023-03-18T07:04:22;95368.25;;;10.82;51.44
55424;BME280;41294;42.666;23.350;2023-03-18T07:06:48;95365.66;;;10.23;52.06
55424;BME280;41294;42.666;23.350;2023-03-18T07:09:14;95373.34;;;10.64;52.19
55424;BME280;41294;42.666;23.350;2023-03-18T07:11:39;95361.47;;;10.01;53.29
55424;BME280;41294;42.666;23.350;2023-03-18T07:14:05;95370.53;;;10.59;52.64
55424;BME280;41294;42.666;23.350;2023-03-18T07:16:30;95368.25;;;10.82;52.36
55424;BME280;41294;42.666;23.350;2023-03-18T07:18:57;95360.91;;;12.20;49.05
55424;BME280;41294;42.666;23.350;2023-03-18T07:21:23;95358.84;;;11.75;49.43
55424;BME280;41294;42.666;23.350;2023-03-18T07:23:49;95363.25;;;11.78;49.17
55424;BME280;41294;42.666;23.350;2023-03-18T07:26:16;95374.06;;;10.64;51.56
55424;BME280;41294;42.666;23.350;2023-03-18T07:28:42;95367.34;;;9.92;54.59
55424;BME280;41294;42.666;23.350;2023-03-18T07:31:07;95364.56;;;11.01;53.28
55424;BME280;41294;42.666;23.350;2023-03-18T07:33:33;95368.53;;;10.50;53.30
55424;BME280;41294;42.666;23.350;2023-03-18T07:35:58;95381.94;;;10.43;53.79
55424;BME280;41294;42.666;23.350;2023-03-18T07:38:24;95380.38;;;10.67;53.39
55424;BME280;41294;42.666;23.350;2023-03-18T07:40:49;95380.31;;;11.35;52.42
55424;BME280;41294;42.666;23.350;2023-03-18T07:43:15;95374.03;;;11.93;50.35
55424;BME280;41294;42.666;23.350;2023-03-18T07:45:42;95374.31;;;12.70;49.36
55424;BME280;41294;42.666;23.350;2023-03-18T07:48:07;95369.91;;;12.58;47.99
55424;BME280;41294;42.666;23.350;2023-03-18T07:50:33;95372.59;;;13.20;46.79
55424;BME280;41294;42.666;23.350;2023-03-18T07:52:58;95371.22;;;13.84;46.56
55424;BME280;41294;42.666;23.350;2023-03-18T07:55:23;95378.94;;;9.70;53.64
55424;BME280;41294;42.666;23.350;2023-03-18T07:57:51;95374.84;;;8.15;61.97
55424;BME280;41294;42.666;23.350;2023-03-18T08:00:16;95376.13;;;10.82;54.33
55424;BME280;41294;42.666;23.350;2023-03-18T08:02:42;95375.22;;;12.01;51.51
55424;BME280;41294;42.666;23.350;2023-03-18T08:05:09;95376.09;;;13.26;47.13
55424;BME280;41294;42.666;23.350;2023-03-18T08:07:35;95367.72;;;13.19;47.88
55424;BME280;41294;42.666;23.350;2023-03-18T08:10:01;95363.19;;;14.11;46.25
55424;BME280;41294;42.666;23.350;2023-03-18T08:12:27;95365.03;;;15.27;42.90
55424;BME280;41294;42.666;23.350;2023-03-18T08:14:52;95366.31;;;14.00;44.46
55424;BME280;41294;42.666;23.350;2023-03-18T08:17:18;95367.03;;;12.92;46.90
55424;BME280;41294;42.666;23.350;2023-03-18T08:19:43;95362.59;;;13.75;44.92
55424;BME280;41294;42.666;23.350;2023-03-18T08:22:09;95376.88;;;12.25;48.42
55424;BME280;41294;42.666;23.350;2023-03-18T08:24:35;95376.84;;;12.91;47.84
55424;BME280;41294;42.666;23.350;2023-03-18T08:27:03;95380.41;;;12.22;48.58
55424;BME280;41294;42.666;23.350;2023-03-18T08:29:28;95372.13;;;13.13;47.74
55424;BME280;41294;42.666;23.350;2023-03-18T08:31:54;95372.56;;;11.40;51.64
55424;BME280;41294;42.666;23.350;2023-03-18T08:34:19;95374.41;;;10.88;53.12
55424;BME280;41294;42.666;23.350;2023-03-18T08:36:46;95375.38;;;11.45;51.98
55424;BME280;41294;42.666;23.350;2023-03-18T08:39:11;95371.16;;;9.79;55.82
55424;BME280;41294;42.666;23.350;2023-03-18T08:41:36;95370.31;;;11.08;53.27
55424;BME280;41294;42.666;23.350;2023-03-18T08:44:03;95365.47;;;10.05;53.30
55424;BME280;41294;42.666;23.350;2023-03-18T08:46:30;95371.47;;;11.80;51.71
55424;BME280;41294;42.666;23.350;2023-03-18T08:48:56;95366.22;;;10.52;53.73
55424;BME280;41294;42.666;23.350;2023-03-18T08:51:22;95366.09;;;12.59;49.59
55424;BME280;41294;42.666;23.350;2023-03-18T08:53:47;95362.19;;;13.99;45.67
55424;BME280;41294;42.666;23.350;2023-03-18T08:56:13;95364.53;;;15.14;43.10
55424;BME280;41294;42.666;23.350;2023-03-18T08:58:40;95378.03;;;11.76;47.14
55424;BME280;41294;42.666;23.350;2023-03-18T09:01:05;95376.28;;;9.45;55.06
55424;BME280;41294;42.666;23.350;2023-03-18T09:03:31;95369.44;;;10.68;51.65
55424;BME280;41294;42.666;23.350;2023-03-18T09:05:58;95374.59;;;11.57;50.54
55424;BME280;41294;42.666;23.350;2023-03-18T09:08:24;95375.22;;;11.40;49.56
55424;BME280;41294;42.666;23.350;2023-03-18T09:10:51;95368.28;;;13.32;45.14
55424;BME280;41294;42.666;23.350;2023-03-18T09:13:18;95370.25;;;12.12;46.21
55424;BME280;41294;42.666;23.350;2023-03-18T09:15:44;95375.53;;;14.14;43.29
55424;BME280;41294;42.666;23.350;2023-03-18T09:18:09;95368.84;;;14.27;42.78
55424;BME280;41294;42.666;23.350;2023-03-18T09:20:35;95368.59;;;14.16;42.94
55424;BME280;41294;42.666;23.350;2023-03-18T09:23:02;95379.13;;;10.13;48.82
55424;BME280;41294;42.666;23.350;2023-03-18T09:25:28;95379.47;;;9.65;50.09
55424;BME280;41294;42.666;23.350;2023-03-18T09:27:53;95379.97;;;10.22;50.28
55424;BME280;41294;42.666;23.350;2023-03-18T09:30:19;95373.88;;;12.71;45.68
55424;BME280;41294;42.666;23.350;2023-03-18T09:32:45;95378.94;;;11.51;42.78
55424;BME280;41294;42.666;23.350;2023-03-18T09:35:11;95372.28;;;11.99;43.10
55424;BME280;41294;42.666;23.350;2023-03-18T09:37:37;95369.34;;;13.08;42.00
55424;BME280;41294;42.666;23.350;2023-03-18T09:40:04;95368.06;;;14.59;39.61
55424;BME280;41294;42.666;23.350;2023-03-18T09:45:21;95367.44;;;13.76;40.98
55424;BME280;41294;42.666;23.350;2023-03-18T09:53:41;95360.66;;;12.35;42.65
55424;BME280;41294;42.666;23.350;2023-03-18T09:56:16;95369.53;;;10.44;48.29
55424;BME280;41294;42.666;23.350;2023-03-18T09:58:47;95367.19;;;9.21;50.70
55424;BME280;41294;42.666;23.350;2023-03-18T10:01:14;95369.53;;;9.32;51.06
55424;BME280;41294;42.666;23.350;2023-03-18T10:03:46;95368.50;;;9.79;50.52
55424;BME280;41294;42.666;23.350;2023-03-18T10:06:18;95377.53;;;10.74;47.38
55424;BME280;41294;42.666;23.350;2023-03-18T10:11:36;95385.78;;;9.27;50.15
55424;BME280;41294;42.666;23.350;2023-03-18T10:14:14;95367.41;;;10.39;48.82
55424;BME280;41294;42.666;23.350;2023-03-18T10:17:09;95368.72;;;11.53;46.03
55424;BME280;41294;42.666;23.350;2023-03-18T10:19:45;95362.44;;;10.53;47.73
55424;BME280;41294;42.666;23.350;2023-03-18T10:28:07;95365.31;;;12.31;41.51
55424;BME280;41294;42.666;23.350;2023-03-18T10:38:45;95349.00;;;13.40;38.04
55424;BME280;41294;42.666;23.350;2023-03-18T10:43:46;95366.00;;;11.66;40.42
55424;BME280;41294;42.666;23.350;2023-03-18T10:46:17;95348.63;;;11.86;40.79
55424;BME280;41294;42.666;23.350;2023-03-18T10:48:46;95352.22;;;12.10;43.59
55424;BME280;41294;42.666;23.350;2023-03-18T10:51:33;95357.91;;;11.09;42.38
55424;BME280;41294;42.666;23.350;2023-03-18T10:56:48;95347.16;;;10.82;42.89
55424;BME280;41294;42.666;23.350;2023-03-18T10:59:16;95338.06;;;11.77;39.85
55424;BME280;41294;42.666;23.350;2023-03-18T11:01:46;95338.94;;;9.87;42.52
55424;BME280;41294;42.666;23.350;2023-03-18T11:04:15;95342.44;;;9.84;42.72
55424;BME280;41294;42.666;23.350;2023-03-18T11:07:04;95337.91;;;9.73;43.49
55424;BME280;41294;42.666;23.350;2023-03-18T11:09:37;95335.59;;;9.75;43.66
55424;BME280;41294;42.666;23.350;2023-03-18T11:14:38;95345.81;;;10.77;42.64
55424;BME280;41294;42.666;23.350;2023-03-18T11:17:21;95352.44;;;10.82;43.46
55424;BME280;41294;42.666;23.350;2023-03-18T11:20:18;95345.06;;;10.09;44.04
55424;BME280;41294;42.666;23.350;2023-03-18T11:22:51;95333.38;;;9.36;47.33
55424;BME280;41294;42.666;23.350;2023-03-18T11:25:22;95333.59;;;9.78;44.69
55424;BME280;41294;42.666;23.350;2023-03-18T11:28:22;95332.22;;;10.11;43.76
55424;BME280;41294;42.666;23.350;2023-03-18T11:30:55;95338.03;;;10.40;43.98
55424;BME280;41294;42.666;23.350;2023-03-18T11:33:28;95331.13;;;10.89;42.74
55424;BME280;41294;42.666;23.350;2023-03-18T11:35:57;95326.38;;;11.27;41.99
55424;BME280;41294;42.666;23.350;2023-03-18T11:38:26;95329.97;;;10.90;42.31
55424;BME280;41294;42.666;23.350;2023-03-18T11:41:05;95315.88;;;11.57;42.33
55424;BME280;41294;42.666;23.350;2023-03-18T11:43:33;95321.66;;;11.82;41.10
55424;BME280;41294;42.666;23.350;2023-03-18T11:46:02;95329.13;;;11.23;41.48
55424;BME280;41294;42.666;23.350;2023-03-18T11:48:35;95332.84;;;10.49;43.20
55424;BME280;41294;42.666;23.350;2023-03-18T11:54:13;95332.44;;;9.79;42.23
55424;BME280;41294;42.666;23.350;2023-03-18T11:56:54;95336.81;;;10.20;42.16
55424;BME280;41294;42.666;23.350;2023-03-18T12:09:54;95343.16;;;9.73;44.65
55424;BME280;41294;42.666;23.350;2023-03-18T12:20:39;95323.63;;;9.98;44.95
55424;BME280;41294;42.666;23.350;2023-03-18T12:32:18;95336.53;;;9.31;44.17
55424;BME280;41294;42.666;23.350;2023-03-18T12:38:06;95318.22;;;9.02;46.46
55424;BME280;41294;42.666;23.350;2023-03-18T12:49:08;95312.81;;;10.30;43.97
55424;BME280;41294;42.666;23.350;2023-03-18T12:51:47;95325.06;;;9.87;44.19
55424;BME280;41294;42.666;23.350;2023-03-18T12:54:23;95334.56;;;9.60;44.54
55424;BME280;41294;42.666;23.350;2023-03-18T12:56:55;95322.53;;;9.21;44.46
55424;BME280;41294;42.666;23.350;2023-03-18T12:59:33;95315.84;;;9.33;44.08
55424;BME280;41294;42.666;23.350;2023-03-18T13:04:29;95310.28;;;9.43;43.48
55424;BME280;41294;42.666;23.350;2023-03-18T13:07:21;95304.91;;;9.72;42.92
55424;BME280;41294;42.666;23.350;2023-03-18T13:10:00;95314.44;;;10.15;43.01
55424;BME280;41294;42.666;23.350;2023-03-18T13:12:35;95319.19;;;9.46;43.10
55424;BME280;41294;42.666;23.350;2023-03-18T13:15:34;95312.06;;;9.59;43.73
55424;BME280;41294;42.666;23.350;2023-03-18T13:18:10;95310.66;;;10.04;42.03
55424;BME280;41294;42.666;23.350;2023-03-18T13:20:37;95312.09;;;10.51;41.67
55424;BME280;41294;42.666;23.350;2023-03-18T13:29:12;95318.56;;;9.91;42.82
55424;BME280;41294;42.666;23.350;2023-03-18T13:34:48;95317.63;;;10.44;41.45
55424;BME280;41294;42.666;23.350;2023-03-18T13:42:55;95304.38;;;10.35;39.56
55424;BME280;41294;42.666;23.350;2023-03-18T13:45:37;95310.47;;;9.61;40.94
55424;BME280;41294;42.666;23.350;2023-03-18T13:48:07;95315.53;;;9.31;41.02
55424;BME280;41294;42.666;23.350;2023-03-18T13:50:40;95303.09;;;9.06;41.23
55424;BME280;41294;42.666;23.350;2023-03-18T13:53:39;95301.78;;;9.52;41.26
55424;BME280;41294;42.666;23.350;2023-03-18T13:56:25;95294.41;;;9.47;39.18
55424;BME280;41294;42.666;23.350;2023-03-18T13:58:52;95300.06;;;9.82;39.10
55424;BME280;41294;42.666;23.350;2023-03-18T14:01:31;95291.41;;;9.94;39.38
55424;BME280;41294;42.666;23.350;2023-03-18T14:04:43;95289.75;;;9.88;39.81
55424;BME280;41294;42.666;23.350;2023-03-18T14:07:12;95293.09;;;10.13;39.49
55424;BME280;41294;42.666;23.350;2023-03-18T14:09:53;95289.63;;;10.38;40.38
55424;BME280;41294;42.666;23.350;2023-03-18T14:12:21;95286.72;;;10.57;38.31
55424;BME280;41294;42.666;23.350;2023-03-18T14:17:45;95292.47;;;9.84;39.63
55424;BME280;41294;42.666;23.350;2023-03-18T14:25:39;95288.34;;;10.08;38.94
55424;BME280;41294;42.666;23.350;2023-03-18T14:40:59;95297.97;;;9.53;40.12
55424;BME280;41294;42.666;23.350;2023-03-18T14:43:30;95289.75;;;9.88;39.13
55424;BME280;41294;42.666;23.350;2023-03-18T14:46:01;95287.63;;;10.42;38.87
55424;BME280;41294;42.666;23.350;2023-03-18T14:48:32;95291.56;;;10.80;39.67
55424;BME280;41294;42.666;23.350;2023-03-18T14:51:00;95297.75;;;10.31;38.77
55424;BME280;41294;42.666;23.350;2023-03-18T14:53:35;95300.72;;;10.33;39.85
55424;BME280;41294;42.666;23.350;2023-03-18T14:56:03;95296.13;;;10.12;38.52
55424;BME280;41294;42.666;23.350;2023-03-18T14:58:29;95293.41;;;10.03;38.58
55424;BME280;41294;42.666;23.350;2023-03-18T15:01:06;95291.72;;;9.84;37.78
55424;BME280;41294;42.666;23.350;2023-03-18T15:03:34;95305.06;;;10.14;37.42
55424;BME280;41294;42.666;23.350;2023-03-18T15:06:04;95296.88;;;9.87;37.67
55424;BME280;41294;42.666;23.350;2023-03-18T15:08:36;95298.44;;;10.10;37.45